Time;durP1;ratioP1;P1;durP2;ratioP2;P2;SDS_P1;SDS_P2;PMS_P1;PMS_P2;Temp;Humidity;BMP_temperature;BMP_pressure;BME280_temperature;BME280_humidity;BME280_pressure;Samples;Min_cycle;Max_cycle;Signal;HPM_P1;HPM_P2
2022/08/12 00:43:12;;;;;;;;;;;;;;;;;;2106831;28;19924;-43
2022/08/12 00:44:12;;;;;;;;;;;;;;;;;;2113457;28;19971;-43
2022/08/12 00:45:13;;;;;;;;;;;;;;;;;;2115448;28;19996;-43
2022/08/12 00:46:35;;;;;;;;;;;;;;;;;;2115198;28;20014;-43
2022/08/12 00:47:36;;;;;;;;;;;;;;;;;;2115188;28;20349;-44
2022/08/12 00:48:36;;;;;;;;;;;;;;;;;;2115483;28;20561;-43
2022/08/12 00:49:37;;;;;;;;;;;;;;;;;;2115280;28;19924;-44
2022/08/12 00:50:38;;;;;;;;;;;;;;;;;;2115533;28;20452;-44
2022/08/12 00:52:59;;;;;;;;;;;;;;;;;;2115157;28;20006;-43
2022/08/12 00:54:00;;;;;;;;;;;;;;;;;;2115283;28;20381;-43
2022/08/12 00:55:01;;;;;;;;;;;;;;;;;;2115166;28;19924;-43
2022/08/12 00:56:01;;;;;;;;;;;;;;;;;;2115477;28;20018;-44
2022/08/12 00:57:03;;;;;;;;;;;;;;;;;;2115108;28;20392;-44
2022/08/12 00:58:04;;;;;;;;;;;;;;;;;;2115348;28;19938;-43
2022/08/12 00:59:05;;;;;;;;;;;;;;;;;;2115100;28;19924;-44
2022/08/12 01:00:07;;;;;;;;;;;;;;;;;;2115406;28;19928;-46
2022/08/12 01:01:08;;;;;;;;;;;;;;;;;;2115071;28;19935;-44
2022/08/12 01:02:09;;;;;;;;;;;;;;;;;;2115319;28;19923;-44
2022/08/12 01:03:12;;;;;;;;;;;;;;;;;;2115263;28;20376;-43
2022/08/12 01:12:07;;;;;;;;;;;;;;;;;;2106988;28;19966;-45
2022/08/12 01:13:07;;;;;;;;;;;;;;;;;;2106649;28;20284;-45
2022/08/12 01:14:22;;;;;;;;;;;;;;;;;;2106688;28;19924;-45
2022/08/12 01:15:23;;;;;;;;;;;;;;;;;;2106675;28;20011;-44
2022/08/12 01:16:24;;;;;;;;;;;;;;;;;;2106679;28;19973;-45
2022/08/12 01:17:25;;;;;;;;;;;;;;;;;;2106646;28;19928;-46
2022/08/12 01:18:26;;;;;;;;;;;;;;;;;;2106646;28;20046;-44
2022/08/12 01:19:27;;;;;;;;;;;;;;;;;;2106736;28;19971;-45
2022/08/12 01:20:28;;;;;;;;;;;;;;;;;;2106702;28;20340;-46
2022/08/12 01:21:29;;;;;;;;;;;;;;;;;;2106608;28;20068;-46
2022/08/12 01:22:30;;;;;;;;;;;;;;;;;;2106686;28;20404;-45
2022/08/12 01:23:31;;;;;;;;;;;;;;;;;;2106570;28;20312;-46
2022/08/12 01:24:32;;;;;;;;;;;;;;;;;;2106609;28;19928;-44
2022/08/12 01:25:34;;;;;;;;;;;;;;;;;;2106576;28;19975;-45
2022/08/12 01:26:39;;;;;;;;;;;;;;;;;;2106506;28;19924;-45
2022/08/12 01:27:39;;;;;;;;;;;;;;;;;;2106669;28;19969;-46
2022/08/12 01:28:41;;;;;;;;;;;;;;;;;;2106546;28;19974;-45
2022/08/12 01:29:42;;;;;;;;;;;;;;;;;;2105896;28;19928;-44
2022/08/12 01:30:43;;;;;;;;;;;;;;;;;;2106235;28;20369;-45
2022/08/12 01:31:44;;;;;;;;;;;;;;;;;;2106841;28;19924;-45
2022/08/12 01:32:45;;;;;;;;;;;;;;;;;;2106578;28;20346;-45
2022/08/12 01:33:46;;;;;;;;;;;;;;;;;;2106718;28;20012;-45
2022/08/12 01:34:47;;;;;;;;;;;;;;;;;;2106537;28;20392;-45
2022/08/12 01:35:48;;;;;;;;;;;;;;;;;;2106905;28;19969;-43
2022/08/12 01:36:58;;;;;;;;;;;;;;;;;;2106514;28;20582;-43
2022/08/12 01:37:59;;;;;;;;;;;;;;;;;;2106525;28;20023;-43
2022/08/12 01:39:00;;;;;;;;;;;;;;;;;;2112206;28;19996;-44
2022/08/12 01:40:02;;;;;;;;;;;;;;;;;;2114828;28;20486;-43
2022/08/12 01:41:24;;;;;;;;;;;;;;;;;;2114861;28;20338;-44
2022/08/12 01:42:24;;;;;;;;;;;;;;;;;;2114728;28;20027;-44
2022/08/12 01:43:26;;;;;;;;;;;;;;;;;;2115063;28;20038;-44
2022/08/12 01:44:27;;;;;;;;;;;;;;;;;;2114872;28;20011;-44
2022/08/12 01:45:28;;;;;;;;;;;;;;;;;;2114980;28;20342;-45
2022/08/12 01:46:29;;;;;;;;;;;;;;;;;;2114866;28;19974;-44
2022/08/12 01:47:30;;;;;;;;;;;;;;;;;;2115208;28;20057;-44
2022/08/12 01:48:32;;;;;;;;;;;;;;;;;;2114827;28;19999;-48
2022/08/12 01:49:33;;;;;;;;;;;;;;;;;;2114883;28;20377;-46
2022/08/12 01:50:33;;;;;;;;;;;;;;;;;;2114987;28;19963;-45
2022/08/12 01:51:38;;;;;;;;;;;;;;;;;;2114848;28;19963;-45
2022/08/12 01:52:58;;;;;;;;;;;;;;;;;;2114930;28;20222;-45
2022/08/12 01:54:03;;;;;;;;;;;;;;;;;;2114849;28;19930;-45
2022/08/12 01:55:05;;;;;;;;;;;;;;;;;;2114965;28;20014;-47
2022/08/12 01:56:06;;;;;;;;;;;;;;;;;;2114897;28;20010;-46
2022/08/12 01:57:09;;;;;;;;;;;;;;;;;;2114935;28;19959;-45
2022/08/12 01:58:11;;;;;;;;;;;;;;;;;;2114822;28;19972;-45
2022/08/12 02:00:43;;;;;;;;;;;;;;;;;;2114752;28;19963;-44
2022/08/12 02:01:54;;;;;;;;;;;;;;;;;;2114584;28;19968;-46
2022/08/12 02:02:56;;;;;;;;;;;;;;;;;;2114932;28;20012;-45
2022/08/12 02:11:52;;;;;;;;;;;;;;;;;;2106970;28;19928;-44
2022/08/12 02:12:53;;;;;;;;;;;;;;;;;;2106557;28;19934;-44
2022/08/12 02:13:54;;;;;;;;;;;;;;;;;;2106270;28;20300;-44
2022/08/12 02:14:55;;;;;;;;;;;;;;;;;;2106302;28;19924;-43
2022/08/12 02:15:56;;;;;;;;;;;;;;;;;;2106211;28;20405;-43
2022/08/12 02:16:57;;;;;;;;;;;;;;;;;;2106368;28;20031;-44
2022/08/12 02:17:59;;;;;;;;;;;;;;;;;;2106335;28;20015;-44
2022/08/12 02:19:00;;;;;;;;;;;;;;;;;;2106398;28;20465;-46
2022/08/12 02:20:00;;;;;;;;;;;;;;;;;;2106541;28;19924;-45
2022/08/12 02:21:01;;;;;;;;;;;;;;;;;;2106400;28;19924;-45
2022/08/12 02:22:03;;;;;;;;;;;;;;;;;;2105978;28;20015;-45
2022/08/12 02:23:05;;;;;;;;;;;;;;;;;;2106585;28;20023;-45
2022/08/12 02:24:06;;;;;;;;;;;;;;;;;;2106542;28;20015;-44
2022/08/12 02:25:07;;;;;;;;;;;;;;;;;;2106178;28;19975;-44
2022/08/12 02:26:08;;;;;;;;;;;;;;;;;;2106237;28;19931;-44
2022/08/12 02:27:09;;;;;;;;;;;;;;;;;;2106439;28;19988;-44
2022/08/12 02:28:10;;;;;;;;;;;;;;;;;;2106679;28;20007;-43
2022/08/12 02:29:11;;;;;;;;;;;;;;;;;;2106159;28;20420;-43
2022/08/12 02:30:13;;;;;;;;;;;;;;;;;;2106524;28;20010;-44
2022/08/12 02:31:14;;;;;;;;;;;;;;;;;;2106089;28;20372;-44
2022/08/12 02:32:14;;;;;;;;;;;;;;;;;;2106345;28;19925;-43
2022/08/12 02:33:15;;;;;;;;;;;;;;;;;;2106473;28;19924;-44
2022/08/12 02:34:16;;;;;;;;;;;;;;;;;;2106204;28;20006;-43
2022/08/12 02:35:18;;;;;;;;;;;;;;;;;;2112064;28;19959;-44
2022/08/12 02:36:19;;;;;;;;;;;;;;;;;;2114891;28;19980;-45
2022/08/12 02:37:20;;;;;;;;;;;;;;;;;;2114766;28;19987;-45
2022/08/12 02:38:21;;;;;;;;;;;;;;;;;;2114853;28;20289;-45
2022/08/12 02:39:22;;;;;;;;;;;;;;;;;;2114777;28;19924;-45
2022/08/12 02:40:22;;;;;;;;;;;;;;;;;;2114705;28;19931;-45
2022/08/12 02:41:24;;;;;;;;;;;;;;;;;;2116399;28;20388;-44
2022/08/12 02:42:24;;;;;;;;;;;;;;;;;;2117418;28;19924;-44
2022/08/12 02:43:26;;;;;;;;;;;;;;;;;;2117331;28;20286;-44
2022/08/12 02:44:27;;;;;;;;;;;;;;;;;;2117466;28;20014;-44
2022/08/12 02:45:28;;;;;;;;;;;;;;;;;;2117609;28;19953;-44
2022/08/12 02:46:29;;;;;;;;;;;;;;;;;;2117359;27;20018;-44
2022/08/12 02:47:30;;;;;;;;;;;;;;;;;;2117411;28;19967;-44
2022/08/12 02:48:51;;;;;;;;;;;;;;;;;;2117420;28;19924;-44
2022/08/12 02:49:54;;;;;;;;;;;;;;;;;;2117332;28;19962;-44
2022/08/12 02:50:55;;;;;;;;;;;;;;;;;;2117595;28;19999;-43
2022/08/12 02:51:56;;;;;;;;;;;;;;;;;;2117555;28;20014;-45
2022/08/12 02:52:57;;;;;;;;;;;;;;;;;;2117378;28;20304;-45
2022/08/12 02:53:58;;;;;;;;;;;;;;;;;;2117417;28;20348;-45
2022/08/12 02:55:06;;;;;;;;;;;;;;;;;;2117425;28;19973;-46
2022/08/12 02:56:07;;;;;;;;;;;;;;;;;;2117237;28;20311;-45
2022/08/12 02:57:08;;;;;;;;;;;;;;;;;;2117326;28;20014;-45
2022/08/12 02:58:09;;;;;;;;;;;;;;;;;;2117346;28;20023;-44
2022/08/12 02:59:15;;;;;;;;;;;;;;;;;;2117452;28;19928;-47
2022/08/12 03:00:17;;;;;;;;;;;;;;;;;;2117791;28;19963;-45
2022/08/12 03:01:18;;;;;;;;;;;;;;;;;;2117180;28;20374;-45
2022/08/12 03:02:19;;;;;;;;;;;;;;;;;;2117239;28;20341;-45
2022/08/12 03:03:20;;;;;;;;;;;;;;;;;;2117481;28;19976;-43
2022/08/12 03:04:20;;;;;;;;;;;;;;;;;;2117335;28;20288;-43
2022/08/12 03:05:22;;;;;;;;;;;;;;;;;;2117241;28;19924;-43
2022/08/12 03:06:23;;;;;;;;;;;;;;;;;;2117216;28;19966;-44
2022/08/12 03:07:24;;;;;;;;;;;;;;;;;;2117306;28;19930;-45
2022/08/12 03:08:30;;;;;;;;;;;;;;;;;;2117350;28;19930;-43
2022/08/12 03:09:32;;;;;;;;;;;;;;;;;;2117306;28;19957;-44
2022/08/12 03:10:40;;;;;;;;;;;;;;;;;;2117356;28;19923;-43
2022/08/12 03:11:41;;;;;;;;;;;;;;;;;;2111483;28;20011;-43
2022/08/12 03:12:43;;;;;;;;;;;;;;;;;;2108812;28;20343;-44
2022/08/12 03:13:50;;;;;;;;;;;;;;;;;;2108994;28;20010;-43
2022/08/12 03:14:51;;;;;;;;;;;;;;;;;;2108930;28;19969;-45
2022/08/12 03:15:52;;;;;;;;;;;;;;;;;;2109183;28;20479;-44
2022/08/12 03:16:52;;;;;;;;;;;;;;;;;;2108551;28;20015;-43
2022/08/12 03:17:54;;;;;;;;;;;;;;;;;;2109103;28;19967;-43
2022/08/12 03:19:15;;;;;;;;;;;;;;;;;;2108719;28;20396;-43
2022/08/12 03:20:16;;;;;;;;;;;;;;;;;;2108832;28;19970;-44
2022/08/12 03:21:17;;;;;;;;;;;;;;;;;;2108926;28;19924;-43
2022/08/12 03:22:17;;;;;;;;;;;;;;;;;;2109189;28;19924;-44
2022/08/12 03:23:18;;;;;;;;;;;;;;;;;;2108657;28;19968;-45
2022/08/12 03:24:30;;;;;;;;;;;;;;;;;;2109362;28;19931;-46
2022/08/12 03:25:33;;;;;;;;;;;;;;;;;;2108673;28;19924;-46
2022/08/12 03:26:34;;;;;;;;;;;;;;;;;;2109194;28;20011;-45
2022/08/12 03:27:35;;;;;;;;;;;;;;;;;;2108924;28;20380;-44
2022/08/12 03:28:52;;;;;;;;;;;;;;;;;;2108774;28;19924;-44
2022/08/12 03:29:54;;;;;;;;;;;;;;;;;;2108710;28;20034;-45
2022/08/12 03:30:54;;;;;;;;;;;;;;;;;;2109285;28;20011;-44
2022/08/12 03:31:58;;;;;;;;;;;;;;;;;;2117181;27;19931;-45
2022/08/12 03:32:59;;;;;;;;;;;;;;;;;;2117301;27;19969;-45
2022/08/12 03:34:00;;;;;;;;;;;;;;;;;;2117453;28;19927;-44
2022/08/12 03:35:06;;;;;;;;;;;;;;;;;;2117248;28;19924;-44
2022/08/12 03:36:07;;;;;;;;;;;;;;;;;;2117187;27;20057;-43
2022/08/12 03:37:07;;;;;;;;;;;;;;;;;;2117137;28;19930;-44
2022/08/12 03:38:10;;;;;;;;;;;;;;;;;;2117342;28;20356;-45
2022/08/12 03:39:24;;;;;;;;;;;;;;;;;;2117319;28;19928;-43
2022/08/12 03:41:57;;;;;;;;;;;;;;;;;;2117305;28;19999;-44
2022/08/12 04:00:23;;;;;;;;;;;;;;;;;;2115767;28;20006;-45
2022/08/12 04:01:24;;;;;;;;;;;;;;;;;;2115485;28;19974;-45
2022/08/12 04:02:25;;;;;;;;;;;;;;;;;;2115425;28;19935;-47
2022/08/12 04:04:46;;;;;;;;;;;;;;;;;;2115666;28;20026;-48
2022/08/12 04:05:48;;;;;;;;;;;;;;;;;;2115597;28;20019;-45
2022/08/12 04:06:57;;;;;;;;;;;;;;;;;;2115869;28;20064;-47
2022/08/12 04:07:58;;;;;;;;;;;;;;;;;;2115617;28;20010;-45
2022/08/12 04:08:59;;;;;;;;;;;;;;;;;;2115886;28;20022;-46
2022/08/12 04:10:00;;;;;;;;;;;;;;;;;;2115539;28;20409;-44
2022/08/12 04:13:49;;;;;;;;;;;;;;;;;;2073120;28;20405;-45
2022/08/12 04:14:50;;;;;;;;;;;;;;;;;;2094075;28;19959;-44
2022/08/12 04:15:51;;;;;;;;;;;;;;;;;;2107096;28;20011;-44
2022/08/12 04:16:52;;;;;;;;;;;;;;;;;;2106932;28;20013;-44
2022/08/12 04:17:53;;;;;;;;;;;;;;;;;;2106994;28;19932;-45
2022/08/12 04:19:07;;;;;;;;;;;;;;;;;;2107087;28;20370;-46
2022/08/12 04:20:08;;;;;;;;;;;;;;;;;;2107182;28;19960;-45
2022/08/12 04:21:09;;;;;;;;;;;;;;;;;;2106924;28;19993;-46
2022/08/12 04:22:11;;;;;;;;;;;;;;;;;;2107001;28;20057;-45
2022/08/12 04:23:12;;;;;;;;;;;;;;;;;;2107054;28;19924;-46
2022/08/12 04:24:13;;;;;;;;;;;;;;;;;;2107449;28;19928;-44
2022/08/12 04:25:14;;;;;;;;;;;;;;;;;;2107410;28;19924;-45
2022/08/12 04:26:15;;;;;;;;;;;;;;;;;;2106962;28;20065;-49
2022/08/12 04:27:16;;;;;;;;;;;;;;;;;;2108575;28;19924;-46
2022/08/12 04:28:17;;;;;;;;;;;;;;;;;;2115440;28;19989;-48
2022/08/12 04:29:18;;;;;;;;;;;;;;;;;;2115689;28;19932;-44
2022/08/12 04:30:19;;;;;;;;;;;;;;;;;;2115697;28;20297;-45
2022/08/12 04:31:33;;;;;;;;;;;;;;;;;;2115545;28;19984;-46
2022/08/12 04:32:34;;;;;;;;;;;;;;;;;;2115538;28;20403;-45
2022/08/12 04:33:35;;;;;;;;;;;;;;;;;;2115896;28;19923;-48
2022/08/12 04:34:37;;;;;;;;;;;;;;;;;;2115660;28;20372;-44
2022/08/12 04:35:38;;;;;;;;;;;;;;;;;;2115374;28;20006;-45
2022/08/12 04:36:39;;;;;;;;;;;;;;;;;;2115404;28;19924;-48
2022/08/12 04:37:40;;;;;;;;;;;;;;;;;;2115563;28;20395;-49
2022/08/12 04:38:59;;;;;;;;;;;;;;;;;;2115703;28;19938;-48
2022/08/12 04:40:00;;;;;;;;;;;;;;;;;;2115323;28;20341;-45
2022/08/12 04:41:01;;;;;;;;;;;;;;;;;;2115315;28;20015;-46
2022/08/12 04:42:01;;;;;;;;;;;;;;;;;;2115169;28;19963;-47
2022/08/12 04:43:02;;;;;;;;;;;;;;;;;;2115337;28;20460;-46
2022/08/12 04:44:03;;;;;;;;;;;;;;;;;;2115623;28;19931;-45
2022/08/12 04:45:06;;;;;;;;;;;;;;;;;;2115325;28;20007;-45
2022/08/12 04:46:07;;;;;;;;;;;;;;;;;;2115133;28;20451;-44
2022/08/12 04:47:08;;;;;;;;;;;;;;;;;;2115295;28;20053;-49
2022/08/12 04:48:09;;;;;;;;;;;;;;;;;;2115419;28;20010;-44
2022/08/12 04:49:10;;;;;;;;;;;;;;;;;;2115273;28;19972;-48
2022/08/12 04:50:11;;;;;;;;;;;;;;;;;;2115283;28;19928;-44
2022/08/12 04:51:32;;;;;;;;;;;;;;;;;;2115344;28;20396;-45
2022/08/12 04:52:32;;;;;;;;;;;;;;;;;;2115272;28;20424;-46
2022/08/12 04:53:35;;;;;;;;;;;;;;;;;;2115310;28;19963;-46
2022/08/12 04:54:36;;;;;;;;;;;;;;;;;;2115556;28;19923;-45
2022/08/12 04:55:37;;;;;;;;;;;;;;;;;;2115356;28;19923;-44
2022/08/12 04:56:39;;;;;;;;;;;;;;;;;;2115223;28;20372;-46
2022/08/12 04:57:40;;;;;;;;;;;;;;;;;;2115303;28;20019;-44
2022/08/12 04:58:41;;;;;;;;;;;;;;;;;;2115505;28;19966;-45
2022/08/12 04:59:42;;;;;;;;;;;;;;;;;;2115333;28;19972;-47
2022/08/12 05:00:47;;;;;;;;;;;;;;;;;;2115248;28;20227;-44
2022/08/12 05:01:49;;;;;;;;;;;;;;;;;;2115511;28;19924;-45
2022/08/12 05:02:50;;;;;;;;;;;;;;;;;;2115192;28;19930;-45
2022/08/12 05:03:51;;;;;;;;;;;;;;;;;;2115136;28;19959;-45
2022/08/12 05:04:51;;;;;;;;;;;;;;;;;;2115023;28;20018;-45
2022/08/12 05:05:55;;;;;;;;;;;;;;;;;;2115371;28;19963;-44
2022/08/12 05:06:56;;;;;;;;;;;;;;;;;;2115447;28;19924;-46
2022/08/12 05:07:57;;;;;;;;;;;;;;;;;;2115315;28;19924;-46
2022/08/12 05:08:59;;;;;;;;;;;;;;;;;;2115603;28;20060;-44
2022/08/12 05:10:00;;;;;;;;;;;;;;;;;;2115340;28;20007;-45
2022/08/12 05:11:04;;;;;;;;;;;;;;;;;;2115009;28;19928;-45
2022/08/12 05:12:06;;;;;;;;;;;;;;;;;;2115193;28;20311;-44
2022/08/12 05:13:06;;;;;;;;;;;;;;;;;;2115534;28;20022;-46
2022/08/12 05:14:07;;;;;;;;;;;;;;;;;;2115362;28;19975;-46
2022/08/12 05:15:08;;;;;;;;;;;;;;;;;;2115522;28;19924;-45
2022/08/12 05:16:19;;;;;;;;;;;;;;;;;;2115114;28;19931;-44
2022/08/12 05:17:27;;;;;;;;;;;;;;;;;;2115355;28;19924;-45
2022/08/12 05:18:29;;;;;;;;;;;;;;;;;;2115083;28;19963;-46
2022/08/12 05:19:29;;;;;;;;;;;;;;;;;;2115289;28;19927;-48
2022/08/12 05:20:31;;;;;;;;;;;;;;;;;;2115167;28;19924;-46
2022/08/12 05:21:32;;;;;;;;;;;;;;;;;;2115143;28;20011;-47
2022/08/12 05:22:33;;;;;;;;;;;;;;;;;;2115530;28;19930;-45
2022/08/12 05:23:37;;;;;;;;;;;;;;;;;;2114931;28;19931;-45
2022/08/12 05:24:38;;;;;;;;;;;;;;;;;;2115226;28;19931;-46
2022/08/12 05:25:39;;;;;;;;;;;;;;;;;;2115630;28;19950;-46
2022/08/12 05:26:40;;;;;;;;;;;;;;;;;;2115191;28;19923;-46
2022/08/12 05:27:41;;;;;;;;;;;;;;;;;;2115263;28;20010;-46
2022/08/12 05:28:55;;;;;;;;;;;;;;;;;;2115633;28;19924;-46
2022/08/12 05:29:56;;;;;;;;;;;;;;;;;;2115101;28;20002;-46
2022/08/12 05:31:11;;;;;;;;;;;;;;;;;;2115416;28;20002;-45
2022/08/12 05:32:19;;;;;;;;;;;;;;;;;;2115521;28;20377;-46
2022/08/12 05:33:20;;;;;;;;;;;;;;;;;;2115803;28;20019;-46
2022/08/12 05:34:21;;;;;;;;;;;;;;;;;;2115508;28;19956;-46
2022/08/12 05:35:26;;;;;;;;;;;;;;;;;;2115438;28;19928;-44
2022/08/12 05:36:27;;;;;;;;;;;;;;;;;;2114997;28;20424;-45
2022/08/12 05:37:28;;;;;;;;;;;;;;;;;;2115215;28;19924;-46
2022/08/12 05:39:49;;;;;;;;;;;;;;;;;;2115315;28;19963;-46
2022/08/12 05:40:49;;;;;;;;;;;;;;;;;;2114925;28;19924;-46
2022/08/12 05:41:50;;;;;;;;;;;;;;;;;;2114910;28;20385;-47
2022/08/12 05:42:51;;;;;;;;;;;;;;;;;;2115285;28;19924;-46
2022/08/12 05:43:52;;;;;;;;;;;;;;;;;;2115307;28;20494;-47
2022/08/12 05:44:53;;;;;;;;;;;;;;;;;;2114962;28;19978;-49
2022/08/12 05:45:54;;;;;;;;;;;;;;;;;;2115229;28;19950;-45
2022/08/12 05:46:55;;;;;;;;;;;;;;;;;;2114822;28;19973;-44
2022/08/12 05:47:56;;;;;;;;;;;;;;;;;;2114934;28;19931;-46
2022/08/12 05:48:59;;;;;;;;;;;;;;;;;;2114836;28;20497;-46
2022/08/12 05:50:00;;;;;;;;;;;;;;;;;;2114817;28;19930;-45
2022/08/12 05:51:01;;;;;;;;;;;;;;;;;;2115047;28;19931;-46
2022/08/12 05:52:02;;;;;;;;;;;;;;;;;;2115078;28;20034;-46
2022/08/12 05:53:05;;;;;;;;;;;;;;;;;;2114958;28;19924;-46
2022/08/12 05:54:06;;;;;;;;;;;;;;;;;;2114872;28;20019;-45
2022/08/12 05:55:07;;;;;;;;;;;;;;;;;;2114949;28;20027;-45
2022/08/12 05:56:08;;;;;;;;;;;;;;;;;;2115141;28;19963;-45
2022/08/12 05:57:10;;;;;;;;;;;;;;;;;;2115326;28;19930;-45
2022/08/12 05:58:11;;;;;;;;;;;;;;;;;;2114753;28;20384;-47
2022/08/12 05:59:12;;;;;;;;;;;;;;;;;;2115055;28;19923;-46
2022/08/12 06:00:15;;;;;;;;;;;;;;;;;;2115527;28;20049;-45
2022/08/12 06:01:16;;;;;;;;;;;;;;;;;;2114894;28;20019;-45
2022/08/12 06:02:37;;;;;;;;;;;;;;;;;;2114941;28;19946;-46
2022/08/12 06:03:38;;;;;;;;;;;;;;;;;;2114781;28;19971;-45
2022/08/12 06:04:39;;;;;;;;;;;;;;;;;;2115082;28;19980;-47
2022/08/12 06:05:43;;;;;;;;;;;;;;;;;;2114742;28;20041;-46
2022/08/12 06:06:55;;;;;;;;;;;;;;;;;;2114861;28;19923;-46
2022/08/12 06:07:55;;;;;;;;;;;;;;;;;;2114983;28;20006;-47
2022/08/12 06:09:01;;;;;;;;;;;;;;;;;;2114852;28;20397;-46
2022/08/12 06:10:02;;;;;;;;;;;;;;;;;;2114787;28;20027;-47
2022/08/12 06:11:04;;;;;;;;;;;;;;;;;;2113933;28;19966;-46
2022/08/12 06:12:05;;;;;;;;;;;;;;;;;;2106566;28;20003;-46
2022/08/12 06:13:07;;;;;;;;;;;;;;;;;;2106512;28;19924;-46
2022/08/12 06:14:08;;;;;;;;;;;;;;;;;;2106449;28;20027;-45
2022/08/12 06:15:12;;;;;;;;;;;;;;;;;;2106461;28;19924;-46
2022/08/12 06:16:13;;;;;;;;;;;;;;;;;;2105475;28;19928;-46
2022/08/12 06:17:14;;;;;;;;;;;;;;;;;;2106592;28;19931;-46
2022/08/12 06:18:15;;;;;;;;;;;;;;;;;;2106576;28;19924;-46
2022/08/12 06:19:16;;;;;;;;;;;;;;;;;;2106223;28;19924;-46
2022/08/12 06:20:17;;;;;;;;;;;;;;;;;;2112076;28;20508;-45
2022/08/12 06:21:26;;;;;;;;;;;;;;;;;;2115144;28;20328;-46
2022/08/12 06:22:28;;;;;;;;;;;;;;;;;;2114660;28;19967;-44
2022/08/12 06:23:29;;;;;;;;;;;;;;;;;;2114903;28;19927;-46
2022/08/12 06:24:32;;;;;;;;;;;;;;;;;;2114818;28;19924;-45
2022/08/12 06:25:33;;;;;;;;;;;;;;;;;;2114645;28;19990;-45
2022/08/12 06:26:34;;;;;;;;;;;;;;;;;;2114902;28;19972;-46
2022/08/12 06:27:35;;;;;;;;;;;;;;;;;;2114907;28;20072;-46
2022/08/12 06:28:36;;;;;;;;;;;;;;;;;;2114667;28;19923;-48
2022/08/12 06:29:37;;;;;;;;;;;;;;;;;;2114621;28;20341;-45
2022/08/12 06:30:58;;;;;;;;;;;;;;;;;;2114751;28;19923;-46
2022/08/12 06:32:19;;;;;;;;;;;;;;;;;;2114569;28;20358;-46
2022/08/12 06:33:20;;;;;;;;;;;;;;;;;;2114643;28;19924;-48
2022/08/12 06:34:30;;;;;;;;;;;;;;;;;;2114714;28;19963;-46
2022/08/12 06:35:51;;;;;;;;;;;;;;;;;;2114704;28;20003;-46
2022/08/12 06:36:53;;;;;;;;;;;;;;;;;;2114706;28;19924;-48
2022/08/12 06:37:55;;;;;;;;;;;;;;;;;;2114615;28;20034;-49
2022/08/12 06:38:57;;;;;;;;;;;;;;;;;;2114761;28;19932;-46
2022/08/12 06:39:58;;;;;;;;;;;;;;;;;;2114778;28;19924;-49
2022/08/12 06:43:42;;;;;;;;;;;;;;;;;;2114790;28;19928;-46
2022/08/12 06:45:04;;;;;;;;;;;;;;;;;;2114569;28;20341;-45
2022/08/12 06:46:06;;;;;;;;;;;;;;;;;;2114521;28;19924;-48
2022/08/12 06:47:06;;;;;;;;;;;;;;;;;;2114484;28;20019;-46
2022/08/12 06:48:08;;;;;;;;;;;;;;;;;;2114600;28;19930;-46
2022/08/12 06:49:11;;;;;;;;;;;;;;;;;;2114711;28;19924;-47
2022/08/12 06:50:14;;;;;;;;;;;;;;;;;;2114775;28;19967;-46
2022/08/12 06:51:18;;;;;;;;;;;;;;;;;;2114641;28;19955;-47
2022/08/12 06:52:23;;;;;;;;;;;;;;;;;;2114685;28;19928;-47
2022/08/12 06:53:25;;;;;;;;;;;;;;;;;;2114782;28;20000;-47
2022/08/12 06:54:26;;;;;;;;;;;;;;;;;;2114544;28;20300;-47
2022/08/12 06:55:31;;;;;;;;;;;;;;;;;;2114821;28;20000;-45
2022/08/12 06:56:33;;;;;;;;;;;;;;;;;;2114626;28;20398;-44
2022/08/12 06:57:54;;;;;;;;;;;;;;;;;;2115149;28;19927;-45
2022/08/12 06:59:07;;;;;;;;;;;;;;;;;;2114747;28;19973;-45
2022/08/12 07:00:10;;;;;;;;;;;;;;;;;;2114845;28;19923;-45
2022/08/12 07:01:11;;;;;;;;;;;;;;;;;;2114483;28;20073;-48
2022/08/12 07:02:12;;;;;;;;;;;;;;;;;;2114248;28;19924;-45
2022/08/12 07:03:17;;;;;;;;;;;;;;;;;;2114851;28;19934;-46
2022/08/12 07:04:23;;;;;;;;;;;;;;;;;;2114504;28;19928;-45
2022/08/12 07:05:41;;;;;;;;;;;;;;;;;;2114327;28;19931;-45
2022/08/12 07:06:43;;;;;;;;;;;;;;;;;;2114563;28;19966;-45
2022/08/12 07:07:46;;;;;;;;;;;;;;;;;;2114477;28;20023;-46
2022/08/12 07:08:48;;;;;;;;;;;;;;;;;;2114806;28;20003;-45
2022/08/12 07:09:50;;;;;;;;;;;;;;;;;;2114500;28;19923;-45
2022/08/12 07:11:04;;;;;;;;;;;;;;;;;;2113443;28;19924;-44
2022/08/12 07:12:05;;;;;;;;;;;;;;;;;;2106135;28;20381;-44
2022/08/12 07:13:08;;;;;;;;;;;;;;;;;;2106070;28;19932;-45
2022/08/12 07:14:10;;;;;;;;;;;;;;;;;;2106314;28;20014;-45
2022/08/12 07:15:16;;;;;;;;;;;;;;;;;;2106642;28;20325;-44
2022/08/12 07:16:17;;;;;;;;;;;;;;;;;;2109744;28;19927;-48
2022/08/12 07:17:18;;;;;;;;;;;;;;;;;;2115152;28;19985;-45
2022/08/12 07:18:19;;;;;;;;;;;;;;;;;;2114639;28;20436;-46
2022/08/12 07:19:20;;;;;;;;;;;;;;;;;;2114502;28;19963;-46
2022/08/12 07:20:21;;;;;;;;;;;;;;;;;;2114449;28;19977;-45
2022/08/12 07:21:42;;;;;;;;;;;;;;;;;;2114498;28;20407;-46
2022/08/12 07:23:00;;;;;;;;;;;;;;;;;;2115041;28;20326;-46
2022/08/12 07:24:01;;;;;;;;;;;;;;;;;;2114295;28;19923;-45
2022/08/12 07:26:22;;;;;;;;;;;;;;;;;;2114448;28;19931;-47
2022/08/12 07:27:23;;;;;;;;;;;;;;;;;;2114668;28;20598;-45
2022/08/12 07:28:24;;;;;;;;;;;;;;;;;;2115137;28;19923;-44
2022/08/12 07:29:24;;;;;;;;;;;;;;;;;;2115703;28;19924;-45
2022/08/12 07:30:47;;;;;;;;;;;;;;;;;;2116222;28;20377;-46
2022/08/12 07:31:48;;;;;;;;;;;;;;;;;;2115851;28;19924;-46
2022/08/12 07:32:50;;;;;;;;;;;;;;;;;;2116186;28;19924;-45
2022/08/12 07:33:51;;;;;;;;;;;;;;;;;;2116357;28;20069;-46
2022/08/12 07:34:53;;;;;;;;;;;;;;;;;;2116080;28;20340;-46
2022/08/12 07:35:54;;;;;;;;;;;;;;;;;;2115790;28;19928;-45
2022/08/12 07:36:55;;;;;;;;;;;;;;;;;;2115862;28;19946;-46
2022/08/12 07:37:56;;;;;;;;;;;;;;;;;;2116234;28;19923;-45
2022/08/12 07:38:57;;;;;;;;;;;;;;;;;;2115783;28;19935;-44
2022/08/12 07:39:58;;;;;;;;;;;;;;;;;;2115998;28;19931;-46
2022/08/12 07:41:01;;;;;;;;;;;;;;;;;;2115888;28;19957;-46
2022/08/12 07:42:03;;;;;;;;;;;;;;;;;;2115717;28;20010;-47
2022/08/12 07:43:04;;;;;;;;;;;;;;;;;;2115906;28;20007;-46
2022/08/12 07:44:05;;;;;;;;;;;;;;;;;;2115811;28;19970;-47
2022/08/12 07:45:06;;;;;;;;;;;;;;;;;;2116127;28;20022;-46
2022/08/12 07:46:07;;;;;;;;;;;;;;;;;;2115607;28;20014;-47
2022/08/12 07:47:08;;;;;;;;;;;;;;;;;;2115856;28;20147;-46
2022/08/12 07:48:09;;;;;;;;;;;;;;;;;;2116270;28;20502;-46
2022/08/12 07:49:12;;;;;;;;;;;;;;;;;;2116165;28;19924;-44
2022/08/12 07:50:12;;;;;;;;;;;;;;;;;;2115901;28;19931;-45
2022/08/12 07:51:13;;;;;;;;;;;;;;;;;;2115937;28;19927;-45
2022/08/12 07:52:25;;;;;;;;;;;;;;;;;;2115722;28;19973;-45
2022/08/12 07:53:26;;;;;;;;;;;;;;;;;;2116014;28;19932;-47
2022/08/12 07:54:27;;;;;;;;;;;;;;;;;;2115975;28;20439;-50
2022/08/12 07:55:29;;;;;;;;;;;;;;;;;;2115874;28;19971;-45
2022/08/12 07:56:30;;;;;;;;;;;;;;;;;;2115928;28;20068;-46
2022/08/12 07:57:31;;;;;;;;;;;;;;;;;;2115866;28;20000;-48
2022/08/12 07:58:32;;;;;;;;;;;;;;;;;;2115699;28;19963;-46
2022/08/12 07:59:33;;;;;;;;;;;;;;;;;;2116506;28;19928;-47
2022/08/12 08:00:34;;;;;;;;;;;;;;;;;;2116322;28;20014;-45
2022/08/12 08:01:36;;;;;;;;;;;;;;;;;;2115882;28;20019;-45
2022/08/12 08:02:37;;;;;;;;;;;;;;;;;;2115498;28;19928;-46
2022/08/12 08:04:54;;;;;;;;;;;;;;;;;;2115560;28;20037;-45
2022/08/12 08:05:00;;;;;;;;;;;;;;;;;;2115978;28;20014;-46
2022/08/12 08:06:01;;;;;;;;;;;;;;;;;;2115712;28;19928;-46
2022/08/12 08:07:02;;;;;;;;;;;;;;;;;;2115517;28;20371;-46
2022/08/12 08:08:03;;;;;;;;;;;;;;;;;;2116311;28;19934;-47
2022/08/12 08:09:04;;;;;;;;;;;;;;;;;;2115494;28;19978;-46
2022/08/12 08:10:06;;;;;;;;;;;;;;;;;;2115925;28;19959;-46
2022/08/12 08:13:45;;;;;;;;;;;;;;;;;;2115507;28;19962;-47
2022/08/12 08:14:46;;;;;;;;;;;;;;;;;;2115853;28;19971;-47
2022/08/12 08:15:51;;;;;;;;;;;;;;;;;;2115663;28;20393;-45
2022/08/12 08:17:04;;;;;;;;;;;;;;;;;;2115661;28;20389;-47
2022/08/12 08:18:05;;;;;;;;;;;;;;;;;;2115454;28;20014;-47
2022/08/12 08:19:06;;;;;;;;;;;;;;;;;;2115838;28;20057;-46
2022/08/12 08:20:08;;;;;;;;;;;;;;;;;;2115575;28;20075;-46
2022/08/12 08:21:10;;;;;;;;;;;;;;;;;;2115519;28;20010;-48
2022/08/12 08:22:10;;;;;;;;;;;;;;;;;;2115687;28;19978;-45
2022/08/12 08:23:12;;;;;;;;;;;;;;;;;;2115406;28;19943;-45
2022/08/12 08:24:15;;;;;;;;;;;;;;;;;;2115875;28;20010;-45
2022/08/12 08:25:17;;;;;;;;;;;;;;;;;;2115693;28;20004;-45
2022/08/12 08:26:36;;;;;;;;;;;;;;;;;;2115381;28;19928;-45
2022/08/12 08:27:37;;;;;;;;;;;;;;;;;;2115337;28;20383;-47
2022/08/12 08:28:38;;;;;;;;;;;;;;;;;;2115687;28;19924;-45
2022/08/12 08:29:43;;;;;;;;;;;;;;;;;;2115429;28;19924;-49
2022/08/12 08:30:44;;;;;;;;;;;;;;;;;;2115862;28;19958;-46
2022/08/12 08:31:45;;;;;;;;;;;;;;;;;;2115712;28;19959;-46
2022/08/12 08:32:47;;;;;;;;;;;;;;;;;;2115747;28;20010;-48
2022/08/12 08:33:48;;;;;;;;;;;;;;;;;;2115340;28;20040;-46
2022/08/12 08:35:10;;;;;;;;;;;;;;;;;;2115677;28;19923;-44
2022/08/12 08:36:10;;;;;;;;;;;;;;;;;;2115735;28;20372;-46
2022/08/12 08:37:15;;;;;;;;;;;;;;;;;;2115371;28;20372;-47
2022/08/12 08:38:17;;;;;;;;;;;;;;;;;;2115416;28;19924;-46
2022/08/12 08:39:33;;;;;;;;;;;;;;;;;;2114967;28;19924;-46
2022/08/12 08:43:20;;;;;;;;;;;;;;;;;;2092003;28;20448;-48
2022/08/12 08:44:21;;;;;;;;;;;;;;;;;;2115511;28;19955;-46
2022/08/12 08:45:22;;;;;;;;;;;;;;;;;;2115314;28;20341;-47